Lisbon, Iowa
Current Conditions -  °F | °C
As of 7:52 AM on Thursday 27 Nov 2014 (Local Time) from KCID Reporting Station
Clear Clear  
Wind Chill: -7°   Ceiling: Unl
Heat Index: 10°   Visibility: 10mi
Dew Point:   Wind: 16mph
Humidity: 84%   Direction: 310°NW
Pressure: 30.44"   Gusts: NA
Location:  41.92°N, 91.39°W
Report Text: KCID 271352Z 31014KT 10SM CLR M12/M14 A3044 RMK AO2 SLP322 T11221144
Loading
Personal Weather Stations






























Interactive Weather Map New forecast layout! Learn more

10-Day Weather Forecast

Advertisements
Track Severe Weather on mobile